Tulsa International Airport
KTUL : now visible

Airfield :











YOU CAN JOIN US ON...

 
LOGIN :

Register | Disclaimer

   EN    FR    IT 

 









Legend :    VFR   Marginal VFR   IFR   Intensive IFR   Very Intensive IFR
Visi :
Ceiling :
>= 8 km
>= 3000ft
5 to 8 km
1000 to 3000 ft
1500m to 5 km
500 to 1000 ft
800 to 1500m
200 to 500 ft
< 800m
< 200 ft
Symbols :   Thunderstorms  Fog  Heavy snow  Heavy precipitations  Wind > 20 kt






- Airport Elevation : 677 ft
- IATA code : TUL


KTUL - Tulsa International

CURRENT METAR :
  • 291853Z 35012KT 4SM -FZDZ BR OVC009 M05/M06 A3022 RMK AO2 SLP239 P0000 I1000 T10501061

EXPIRED METARs :
  • 291837Z 34013KT 5SM -FZDZ BR OVC009 M05/M06 A3024 RMK AO2 P0000 I1000 T10501061
  • 291753Z 36010KT 10SM -FZDZ OVC010 M04/M06 A3025 RMK AO2 FZDZB50 SLP247 P0000 60000 I1000 I6001 T10441061 11028 21050 50000
  • 291725Z 35011KT 10SM OVC010 M05/M06 A3025 RMK AO2 T10501061
  • 291653Z 36011G19KT 10SM OVC009 M05/M06 A3027 RMK AO2 SLP253 T10501061

TAF KTUL
Valid from the 29 at 19:00 until the 30 at 18:00 UTC


291859Z 2919/3018 01012G20KT P6SM OVC009
TEMPO 2919/2921 4SM -FZDZ
FM292100 01012G18KT P6SM OVC011
FM300100 01012G18KT P6SM OVC025
FM301300 01012KT P6SM OVC035
KZKC FIR / North America



MET'MAP, your aeronautical weather chart ! - Copyright ORBIFLY December 2007 - Disclaimer

ORBIFLY MET'MAP TEAM :

Programming & Development : Alexandra Zaïnal
Original concept : Baudouin d'Aumeries
Technical & hardware support : Manuel Goepfert
Assistance : Marc-Olivier Méhu




SOURCES & CREDITS :

   NOAA       Earth
Advisory